TERMINUS DAM (TRM)

Elevation: 752' · KAWEAH R basin · Operator: US Army Corps of Engineers

Provisional data, subject to change.
Query executed Friday at 10:49:24   clock

Select a sensor type for a plot of data.
Note: Reservoir Flows are daily averages.

Earlier

Date RES ELE    STORAGE    RES CHG    TOC STO    ABV TOC    OUTFLOW    INFLOW    FNF    PPT INC    TEMP MN    TEMP MX    WINDLEN    EVP PAN   
 FEET   AF   AF   AF   AF   CFS   CFS   CFS   INCHES   DEG F   DEG F   MILES   INCHES  
03/30/2016 653.77 75513 725 35818 39695 197 571 571 0.00 7 22 104 0.20
03/31/2016 654.19 76112 599 36515 39597 226 536 536 0.01 9 26 103 0.21
04/01/2016 654.59 76685 573 37212 39473 227 525 525 0.00 12 28 72 0.22
04/02/2016 655.02 77303 618 37909 39394 227 548 548 0.00 12 32 90 0.25
04/03/2016 655.55 78069 766 38606 39463 227 622 622 0.00 13 31 91 0.23
04/04/2016 655.48 77968 -101 39303 38665 734 693 693 0.00 12 28 84 0.22
04/05/2016 655.03 77318 -650 40000 37318 1105 787 787 0.00 11 31 83 0.23
04/06/2016 654.71 76857 -446 45179 31678 1123 900 900 0.00 14 33 78 0.23
04/07/2016 654.43 76456 -401 50357 26099 1168 974 974 0.00 17 30 94 0.22
04/08/2016 654.29 76255 -201 55536 20719 1116 1019 1019 0.27 15 23 60 0.10
04/09/2016 654.70 76843 588 60714 16129 1084 1384 1384 0.56 14 21 59 0.10
04/10/2016 654.86 77073 230 65893 11180 1100 1220 1220 0.00 13 22 61 0.11
04/11/2016 654.78 76958 -115 71071 5887 1092 1039 1039 0.00 13 25 53 0.13
04/12/2016 654.68 76814 -144 76250 564 1002 936 936 0.00 12 26 53 0.17
04/13/2016 654.98 77246 432 81429 -4183 749 971 971 0.00 12 22 62 0.12
04/14/2016 655.79 78417 1171 86607 -8190 392 991 991 0.00 9 23 106 0.22
04/15/2016 656.68 79713 1296 91786 -12073 217 877 877 r 0.00 6 23 71 0.16
04/16/2016 657.53 80962 1249 96964 -16002 180 820 820 r 0.00 10 28 126 0.27
04/17/2016 658.59 82532 1570 102143 -19611 97 902 902 0.01 12 32 124 0.31
04/18/2016 659.82 84372 1840 107321 -22949 40 981 981 0.00 15 35 108 0.31
04/19/2016 661.22 86491 2119 112500 -26009 37 1118 1118 0.00 15 35 104 0.30
04/20/2016 662.73 88804 2313 117679 -28875 39 1217 1217 0.00 14 33 105 0.29
04/21/2016 664.17 91038 2234 122857 -31819 35 1173 1180 r 0.00 12 31 98 0.27
04/22/2016 665.65 93361 2323 128036 -34675 31 1211 1221 r 0.00 11 25 110 0.19
04/23/2016 667.11 95680 2319 133214 -37534 41 1220 1220 r 0.00 7 25 79 0.22
04/24/2016 668.31 97602 -- 138393 -- 41 1018 1018 0.00 11 24 104 0.19
04/25/2016 669.32 99236 -- 143571 -44335 44 877 877 e 0.00 10 20 118 0.19
04/26/2016 671.00 101984 -- 148750 -46766 47 1443 840 e 0.00 9 23 104 0.22
04/27/2016 671.22 102350 -- 153929 -49924 52 247 840 0.00 10 24 96 0.22
04/28/2016 751.34 -- -- -- -- 44 -- -- 0.00 10 23 82 0.17
04/29/2016 -- -- -- -- -- -- -- -- -- -- -- -- --

Later | Latest

Warning! This data is preliminary and subject to revision.

Show TRM Map | Plot TRM Data | 1 Month TRM Data | Real-Time TRM Data | TRM Info